Ida Grove, Iowa
Current Conditions -  °F | °C
As of 3:55 AM on Sunday 23 Nov 2014 (Local Time) from KSLB Reporting Station
Haze Haze  
Wind Chill: 50°   Ceiling: 600
Heat Index: 50°   Visibility: 3mi
Dew Point: 50°   Wind: 13mph
Humidity: 100%   Direction: 190°S
Pressure: 29.47"   Gusts: NA
Location:  42.34°N, 95.47°W
Report Text: KSLB 230955Z AUTO 19011KT 3SM BR OVC006 10/10 A2947 RMK AO2
Loading
Personal Weather Stations






























Interactive Weather Map New forecast layout! Learn more

10-Day Weather Forecast

Advertisements
Track Severe Weather on mobile